Time;durP1;ratioP1;P1;durP2;ratioP2;P2;SDS_P1;SDS_P2;PMS_P1;PMS_P2;Temp;Humidity;BMP_temperature;BMP_pressure;BME280_temperature;BME280_humidity;BME280_pressure;Samples;Min_cycle;Max_cycle;Signal;HPM_P1;HPM_P2
2023/03/08 00:00:46;;;;;;;9.02;5.68;;;;;;;;;;6123678;23;20330;-76
2023/03/08 00:03:13;;;;;;;10.32;6.30;;;;;;;;;;6123495;23;20041;-77
2023/03/08 00:05:40;;;;;;;13.10;7.05;;;;;;;;;;6123661;23;20046;-76
2023/03/08 00:08:07;;;;;;;13.55;6.50;;;;;;;;;;6123116;23;20040;-77
2023/03/08 00:10:34;;;;;;;15.00;5.95;;;;;;;;;;6099199;23;20030;-76
2023/03/08 00:13:01;;;;;;;9.25;5.88;;;;;;;;;;6099052;23;20032;-78
2023/03/08 00:15:27;;;;;;;9.75;6.32;;;;;;;;;;6123472;23;20030;-78
2023/03/08 00:17:54;;;;;;;10.00;6.60;;;;;;;;;;6122921;23;20026;-76
2023/03/08 00:20:21;;;;;;;10.10;6.15;;;;;;;;;;6122710;23;20029;-77
2023/03/08 00:22:47;;;;;;;8.82;5.90;;;;;;;;;;6123184;23;20028;-76
2023/03/08 00:25:17;;;;;;;8.88;5.18;;;;;;;;;;6123390;23;20025;-77
2023/03/08 00:27:44;;;;;;;8.07;5.85;;;;;;;;;;6123197;23;20484;-76
2023/03/08 00:30:11;;;;;;;8.95;6.03;;;;;;;;;;6147523;23;20105;-77
2023/03/08 00:32:38;;;;;;;10.18;6.72;;;;;;;;;;6123637;23;20033;-77
2023/03/08 00:35:05;;;;;;;12.27;6.50;;;;;;;;;;6123309;23;20030;-76
2023/03/08 00:37:32;;;;;;;9.95;5.60;;;;;;;;;;6123239;23;20095;-76
2023/03/08 00:39:59;;;;;;;13.07;6.70;;;;;;;;;;6098851;23;20591;-77
2023/03/08 00:42:25;;;;;;;11.88;7.07;;;;;;;;;;6122533;23;20061;-76
2023/03/08 00:44:52;;;;;;;8.52;6.10;;;;;;;;;;6122580;23;20029;-76
2023/03/08 00:47:19;;;;;;;10.00;5.88;;;;;;;;;;6098511;23;20030;-76
2023/03/08 00:49:46;;;;;;;10.10;6.13;;;;;;;;;;6122754;23;20025;-76
2023/03/08 00:52:12;;;;;;;9.80;6.28;;;;;;;;;;6099085;23;20030;-76
2023/03/08 00:54:39;;;;;;;11.68;6.40;;;;;;;;;;6147648;23;20094;-76
2023/03/08 00:57:06;;;;;;;8.23;5.60;;;;;;;;;;6123651;23;20105;-76
2023/03/08 00:59:32;;;;;;;11.38;6.32;;;;;;;;;;6123289;23;20029;-76
2023/03/08 01:01:59;;;;;;;10.48;6.53;;;;;;;;;;6122806;23;20120;-76
2023/03/08 01:04:26;;;;;;;11.05;6.53;;;;;;;;;;6122025;23;20377;-77
2023/03/08 01:06:53;;;;;;;10.40;6.85;;;;;;;;;;6123395;23;20512;-76
2023/03/08 01:09:20;;;;;;;9.32;6.25;;;;;;;;;;6123497;23;20029;-76
2023/03/08 01:11:46;;;;;;;10.00;6.47;;;;;;;;;;6098561;23;20109;-76
2023/03/08 01:14:13;;;;;;;10.13;6.93;;;;;;;;;;6123034;23;20040;-76
2023/03/08 01:16:40;;;;;;;11.35;6.43;;;;;;;;;;6122824;23;20360;-76
2023/03/08 01:19:08;;;;;;;10.63;7.20;;;;;;;;;;6123437;23;20125;-76
2023/03/08 01:21:35;;;;;;;10.63;6.55;;;;;;;;;;6123271;23;20101;-76
2023/03/08 01:24:01;;;;;;;12.40;7.53;;;;;;;;;;6122521;23;20101;-77
2023/03/08 01:26:28;;;;;;;14.45;7.45;;;;;;;;;;6122666;23;20033;-76
2023/03/08 01:28:56;;;;;;;12.35;7.18;;;;;;;;;;6122584;23;20036;-76
2023/03/08 01:31:27;;;;;;;11.43;6.72;;;;;;;;;;6097979;23;20034;-76
2023/03/08 01:33:54;;;;;;;11.95;6.90;;;;;;;;;;6121990;23;20032;-76
2023/03/08 01:36:22;;;;;;;12.18;7.13;;;;;;;;;;6123152;23;20108;-76
2023/03/08 01:38:50;;;;;;;12.05;7.80;;;;;;;;;;6146549;23;20036;-77
2023/03/08 01:41:28;;;;;;;14.50;7.60;;;;;;;;;;6121669;23;20025;-76
2023/03/08 01:43:55;;;;;;;14.43;7.82;;;;;;;;;;6098627;23;20041;-77
2023/03/08 01:46:25;;;;;;;13.40;7.68;;;;;;;;;;6122933;23;20030;-77
2023/03/08 01:48:59;;;;;;;13.20;7.95;;;;;;;;;;6122872;23;20045;-77
2023/03/08 01:51:33;;;;;;;13.95;7.68;;;;;;;;;;6123062;23;20029;-77
2023/03/08 01:54:02;;;;;;;12.95;7.82;;;;;;;;;;6098205;23;20479;-77
2023/03/08 01:56:29;;;;;;;12.00;7.43;;;;;;;;;;6122751;23;20364;-77
2023/03/08 01:58:55;;;;;;;16.08;7.38;;;;;;;;;;6127124;23;20029;-77
2023/03/08 02:01:22;;;;;;;12.70;7.68;;;;;;;;;;6129996;23;20085;-77
2023/03/08 02:03:49;;;;;;;13.10;8.35;;;;;;;;;;6128887;23;20353;-77
2023/03/08 02:06:16;;;;;;;11.65;7.47;;;;;;;;;;6125001;23;20032;-77
2023/03/08 02:08:43;;;;;;;11.88;7.68;;;;;;;;;;6125769;23;20030;-77
2023/03/08 02:11:09;;;;;;;15.13;8.07;;;;;;;;;;6100697;23;20114;-76
2023/03/08 02:13:36;;;;;;;13.20;8.23;;;;;;;;;;6125141;23;20057;-76
2023/03/08 02:16:03;;;;;;;12.63;7.68;;;;;;;;;;6124696;23;20029;-76
2023/03/08 02:18:30;;;;;;;12.45;8.13;;;;;;;;;;6149203;23;20029;-76
2023/03/08 02:20:57;;;;;;;16.08;8.30;;;;;;;;;;6148507;23;20034;-76
2023/03/08 02:23:24;;;;;;;11.77;7.30;;;;;;;;;;6123711;23;20034;-76
2023/03/08 02:25:53;;;;;;;15.98;8.73;;;;;;;;;;6124329;23;20030;-76
2023/03/08 02:28:21;;;;;;;12.95;7.75;;;;;;;;;;6124275;23;20460;-76
2023/03/08 02:30:48;;;;;;;12.23;8.27;;;;;;;;;;6124842;23;20022;-76
2023/03/08 02:33:16;;;;;;;14.77;8.68;;;;;;;;;;6124385;23;20022;-76
2023/03/08 02:35:44;;;;;;;14.52;7.60;;;;;;;;;;6124442;23;20029;-76
2023/03/08 02:38:11;;;;;;;13.52;7.63;;;;;;;;;;6124327;23;20528;-75
2023/03/08 02:40:39;;;;;;;13.23;8.00;;;;;;;;;;6124026;23;20033;-76
2023/03/08 02:43:06;;;;;;;12.77;7.85;;;;;;;;;;6124696;23;20363;-76
2023/03/08 02:45:33;;;;;;;14.55;7.82;;;;;;;;;;6123925;23;20356;-76
2023/03/08 02:48:04;;;;;;;10.98;6.85;;;;;;;;;;6099685;23;20032;-76
2023/03/08 02:50:31;;;;;;;14.52;8.20;;;;;;;;;;6100264;23;20052;-76
2023/03/08 02:52:58;;;;;;;12.38;7.45;;;;;;;;;;6124253;23;20088;-76
2023/03/08 02:55:24;;;;;;;14.52;8.05;;;;;;;;;;6123632;23;20033;-77
2023/03/08 02:57:51;;;;;;;11.73;8.00;;;;;;;;;;6124523;23;20032;-76
2023/03/08 03:00:18;;;;;;;16.52;8.43;;;;;;;;;;6123371;23;20029;-77
2023/03/08 03:02:45;;;;;;;11.70;7.40;;;;;;;;;;6123228;23;20488;-77
2023/03/08 03:05:12;;;;;;;12.88;7.78;;;;;;;;;;6123767;23;20055;-77
2023/03/08 03:07:40;;;;;;;15.70;8.13;;;;;;;;;;6099893;23;20030;-76
2023/03/08 03:10:08;;;;;;;13.00;7.32;;;;;;;;;;6123549;23;20026;-76
2023/03/08 03:12:35;;;;;;;12.73;7.15;;;;;;;;;;6099742;23;20026;-77
2023/03/08 03:15:03;;;;;;;10.85;7.22;;;;;;;;;;6123972;23;20021;-77
2023/03/08 03:17:31;;;;;;;14.18;8.00;;;;;;;;;;6125450;23;20053;-77
2023/03/08 03:19:58;;;;;;;15.55;7.97;;;;;;;;;;6128004;23;20472;-77
2023/03/08 03:22:24;;;;;;;12.82;7.45;;;;;;;;;;6126829;23;20033;-77
2023/03/08 03:24:51;;;;;;;12.43;7.10;;;;;;;;;;6124497;23;20025;-77
2023/03/08 03:27:18;;;;;;;11.88;7.03;;;;;;;;;;6125712;23;20030;-77
2023/03/08 03:29:45;;;;;;;14.32;7.25;;;;;;;;;;6123813;23;20030;-76
2023/03/08 03:32:12;;;;;;;12.30;8.10;;;;;;;;;;6121663;23;20026;-76
2023/03/08 03:34:38;;;;;;;14.82;7.75;;;;;;;;;;6121308;23;20022;-76
2023/03/08 03:37:05;;;;;;;12.35;7.30;;;;;;;;;;6098201;23;20030;-77
2023/03/08 03:39:37;;;;;;;14.88;7.22;;;;;;;;;;6121660;23;20034;-76
2023/03/08 03:42:06;;;;;;;11.32;6.72;;;;;;;;;;6097570;23;20033;-77
2023/03/08 03:44:32;;;;;;;10.50;6.70;;;;;;;;;;6122999;23;20030;-77
2023/03/08 03:46:59;;;;;;;11.20;6.63;;;;;;;;;;6123567;23;20029;-78
2023/03/08 03:49:26;;;;;;;12.18;6.90;;;;;;;;;;6126741;23;20025;-78
2023/03/08 03:51:53;;;;;;;11.45;7.40;;;;;;;;;;6127357;23;20026;-77
2023/03/08 03:54:20;;;;;;;10.43;6.63;;;;;;;;;;6127995;23;20073;-77
2023/03/08 03:56:46;;;;;;;11.50;6.78;;;;;;;;;;6127859;23;20030;-78
2023/03/08 03:59:13;;;;;;;13.10;7.13;;;;;;;;;;6127949;23;20030;-77
2023/03/08 04:01:40;;;;;;;11.32;7.30;;;;;;;;;;6127773;23;20026;-77
2023/03/08 04:04:08;;;;;;;11.02;7.05;;;;;;;;;;6127210;23;20770;-78
2023/03/08 04:06:35;;;;;;;12.43;7.57;;;;;;;;;;6125492;23;20350;-78
2023/03/08 04:09:04;;;;;;;12.75;6.85;;;;;;;;;;6125726;23;20106;-77
2023/03/08 04:11:36;;;;;;;10.38;6.90;;;;;;;;;;6125447;23;20145;-78
2023/03/08 04:14:03;;;;;;;12.18;7.32;;;;;;;;;;6101954;23;20030;-77
2023/03/08 04:16:32;;;;;;;10.98;7.72;;;;;;;;;;6100118;23;20040;-77
2023/03/08 04:19:04;;;;;;;13.38;7.15;;;;;;;;;;6123653;23;20052;-77
2023/03/08 04:21:31;;;;;;;10.95;6.80;;;;;;;;;;6121869;23;20036;-75
2023/03/08 04:23:58;;;;;;;12.90;7.57;;;;;;;;;;6121711;23;20356;-76
2023/03/08 04:26:26;;;;;;;11.68;7.45;;;;;;;;;;6099811;23;20034;-78
2023/03/08 04:28:53;;;;;;;14.02;8.55;;;;;;;;;;6121662;23;20100;-78
2023/03/08 04:31:22;;;;;;;14.23;7.85;;;;;;;;;;6123955;23;20121;-77
2023/03/08 04:33:49;;;;;;;12.70;7.88;;;;;;;;;;6122739;23;20034;-76
2023/03/08 04:36:16;;;;;;;12.77;7.47;;;;;;;;;;6123547;23;20105;-78
2023/03/08 04:38:44;;;;;;;16.33;8.43;;;;;;;;;;6124359;23;20033;-76
2023/03/08 04:41:11;;;;;;;10.73;7.30;;;;;;;;;;6123619;23;20159;-78
2023/03/08 04:43:46;;;;;;;11.93;7.32;;;;;;;;;;6123961;23;20104;-78
2023/03/08 04:46:14;;;;;;;13.40;8.07;;;;;;;;;;6123731;23;20025;-78
2023/03/08 04:48:41;;;;;;;12.82;8.07;;;;;;;;;;6099389;23;20065;-78
2023/03/08 04:51:09;;;;;;;11.60;7.00;;;;;;;;;;6148030;23;20030;-77
2023/03/08 04:53:37;;;;;;;14.05;8.10;;;;;;;;;;6122974;23;20052;-77
2023/03/08 04:56:05;;;;;;;11.30;7.30;;;;;;;;;;6147542;23;20061;-77
2023/03/08 04:58:32;;;;;;;12.40;7.22;;;;;;;;;;6123907;23;20026;-78
2023/03/08 05:00:59;;;;;;;16.30;7.93;;;;;;;;;;6122077;23;20040;-76
2023/03/08 05:03:26;;;;;;;12.40;7.60;;;;;;;;;;6122552;23;20356;-76
2023/03/08 05:05:54;;;;;;;12.63;7.03;;;;;;;;;;6095488;23;20030;-76
2023/03/08 05:08:22;;;;;;;14.07;8.60;;;;;;;;;;6122344;23;20105;-78
2023/03/08 05:10:57;;;;;;;12.70;7.18;;;;;;;;;;6125798;23;20064;-78
2023/03/08 05:13:30;;;;;;;13.85;7.80;;;;;;;;;;6126462;23;20411;-77
2023/03/08 05:15:57;;;;;;;11.82;7.97;;;;;;;;;;6125103;23;20468;-78
2023/03/08 05:18:24;;;;;;;15.68;7.80;;;;;;;;;;6099596;23;20032;-77
2023/03/08 05:20:56;;;;;;;13.30;7.65;;;;;;;;;;6122214;23;20026;-77
2023/03/08 05:23:24;;;;;;;13.35;8.07;;;;;;;;;;6121135;23;20081;-77
2023/03/08 05:25:55;;;;;;;16.92;7.93;;;;;;;;;;6148966;23;20022;-78
2023/03/08 05:28:23;;;;;;;14.27;8.13;;;;;;;;;;6100770;23;20033;-78
2023/03/08 05:31:02;;;;;;;13.10;7.80;;;;;;;;;;6147509;23;20022;-78
2023/03/08 05:33:30;;;;;;;14.05;8.50;;;;;;;;;;6125274;23;20058;-78
2023/03/08 05:35:56;;;;;;;14.93;8.75;;;;;;;;;;6127344;23;20377;-78
2023/03/08 05:38:24;;;;;;;13.23;8.38;;;;;;;;;;6125820;23;20026;-78
2023/03/08 05:40:51;;;;;;;12.45;8.32;;;;;;;;;;6125720;23;20532;-78
2023/03/08 05:43:18;;;;;;;14.07;7.93;;;;;;;;;;6150522;23;20030;-77
2023/03/08 05:46:01;;;;;;;12.68;7.90;;;;;;;;;;6101137;23;20447;-76
2023/03/08 05:48:30;;;;;;;13.07;8.45;;;;;;;;;;6124046;23;20401;-77
2023/03/08 05:50:56;;;;;;;12.35;7.57;;;;;;;;;;6124527;23;20526;-77
2023/03/08 05:53:23;;;;;;;11.35;7.80;;;;;;;;;;6124587;23;20033;-77
2023/03/08 05:55:50;;;;;;;12.07;8.07;;;;;;;;;;6125100;23;20081;-77
2023/03/08 05:58:17;;;;;;;14.20;8.57;;;;;;;;;;6125383;23;20030;-76
2023/03/08 06:00:43;;;;;;;10.45;7.65;;;;;;;;;;6124644;23;20017;-77
2023/03/08 06:03:10;;;;;;;13.48;7.85;;;;;;;;;;6124249;23;20468;-76
2023/03/08 06:05:37;;;;;;;13.70;8.63;;;;;;;;;;6124385;23;20029;-77
2023/03/08 06:08:04;;;;;;;15.45;9.27;;;;;;;;;;6124911;23;20037;-77
2023/03/08 06:10:31;;;;;;;13.15;8.35;;;;;;;;;;6100552;23;20022;-77
2023/03/08 06:12:57;;;;;;;15.32;7.97;;;;;;;;;;6125950;23;20034;-77
2023/03/08 06:15:24;;;;;;;14.82;8.25;;;;;;;;;;6126083;23;20025;-77
2023/03/08 06:17:52;;;;;;;14.30;7.95;;;;;;;;;;6126421;23;20064;-77
2023/03/08 06:20:19;;;;;;;13.57;8.18;;;;;;;;;;6125210;23;20468;-77
2023/03/08 06:22:46;;;;;;;14.32;8.75;;;;;;;;;;6100898;23;20040;-77
2023/03/08 06:25:13;;;;;;;14.25;8.88;;;;;;;;;;6124403;23;20026;-77
2023/03/08 06:27:39;;;;;;;13.05;9.55;;;;;;;;;;6101743;23;20037;-77
2023/03/08 06:30:07;;;;;;;14.25;8.80;;;;;;;;;;6127684;23;20053;-77
2023/03/08 06:32:34;;;;;;;13.90;8.02;;;;;;;;;;6102578;23;20057;-77
2023/03/08 06:35:01;;;;;;;13.50;9.10;;;;;;;;;;6127144;23;20026;-78
2023/03/08 06:37:31;;;;;;;13.75;8.60;;;;;;;;;;6129508;23;20037;-79
2023/03/08 06:39:59;;;;;;;15.60;8.57;;;;;;;;;;6133680;23;20026;-80
2023/03/08 06:42:26;;;;;;;15.73;9.20;;;;;;;;;;6127954;23;20037;-78
2023/03/08 06:45:08;;;;;;;12.00;7.75;;;;;;;;;;6125042;23;20021;-78
2023/03/08 06:47:34;;;;;;;15.20;8.43;;;;;;;;;;6124945;23;20030;-77
2023/03/08 06:50:01;;;;;;;15.80;8.75;;;;;;;;;;6124169;23;20018;-76
2023/03/08 06:52:36;;;;;;;11.32;7.43;;;;;;;;;;6125351;23;20033;-77
2023/03/08 06:55:04;;;;;;;13.50;8.57;;;;;;;;;;6101893;23;20053;-76
2023/03/08 06:57:31;;;;;;;12.68;7.85;;;;;;;;;;6125631;23;20030;-77
2023/03/08 06:59:58;;;;;;;12.18;7.47;;;;;;;;;;6125940;23;20030;-77
2023/03/08 07:02:25;;;;;;;12.23;7.65;;;;;;;;;;6131369;23;20026;-77
2023/03/08 07:04:52;;;;;;;13.02;8.20;;;;;;;;;;6131430;23;20026;-77
2023/03/08 07:07:22;;;;;;;18.10;8.63;;;;;;;;;;6103370;23;20403;-77
2023/03/08 07:09:52;;;;;;;14.57;8.15;;;;;;;;;;6126998;23;20054;-78
2023/03/08 07:12:19;;;;;;;14.50;7.90;;;;;;;;;;6124365;23;20040;-77
2023/03/08 07:14:45;;;;;;;14.30;8.85;;;;;;;;;;6129831;23;20018;-77
2023/03/08 07:17:12;;;;;;;12.45;8.30;;;;;;;;;;6153227;23;20034;-77
2023/03/08 07:19:45;;;;;;;19.92;8.95;;;;;;;;;;6151759;23;20108;-77
2023/03/08 07:22:12;;;;;;;16.15;8.98;;;;;;;;;;6151306;23;20100;-77
2023/03/08 07:24:38;;;;;;;12.70;8.07;;;;;;;;;;6152278;23;20061;-77
2023/03/08 07:27:05;;;;;;;14.27;8.23;;;;;;;;;;6129213;23;20057;-77
2023/03/08 07:29:32;;;;;;;12.77;8.65;;;;;;;;;;6100416;23;20472;-77
2023/03/08 07:31:59;;;;;;;13.77;8.07;;;;;;;;;;6099948;23;20022;-77
2023/03/08 07:34:25;;;;;;;11.57;7.70;;;;;;;;;;6124328;23;20026;-77
2023/03/08 07:36:52;;;;;;;13.23;8.52;;;;;;;;;;6125060;23;20030;-77
2023/03/08 07:39:19;;;;;;;13.20;7.75;;;;;;;;;;6100614;23;20029;-78
2023/03/08 07:41:45;;;;;;;11.18;7.40;;;;;;;;;;6147469;23;20025;-76
2023/03/08 07:44:13;;;;;;;13.73;8.52;;;;;;;;;;6122004;23;20476;-76
2023/03/08 07:46:39;;;;;;;15.60;9.57;;;;;;;;;;6123781;23;20030;-76
2023/03/08 07:49:09;;;;;;;14.38;9.15;;;;;;;;;;6122878;23;20026;-84
2023/03/08 07:51:36;;;;;;;13.18;8.52;;;;;;;;;;6104435;23;20033;-80
2023/03/08 07:54:03;;;;;;;16.92;9.38;;;;;;;;;;6099461;23;20033;-79
2023/03/08 07:56:29;;;;;;;12.50;8.00;;;;;;;;;;6122917;23;20062;-82
2023/03/08 07:58:56;;;;;;;14.38;8.23;;;;;;;;;;6123048;23;20025;-81
2023/03/08 08:01:23;;;;;;;15.02;8.77;;;;;;;;;;6098813;23;20041;-83
2023/03/08 08:03:50;;;;;;;13.30;8.00;;;;;;;;;;6098847;23;20352;-83
2023/03/08 08:06:16;;;;;;;15.48;8.32;;;;;;;;;;6122876;23;20400;-82
2023/03/08 08:08:43;;;;;;;14.55;8.52;;;;;;;;;;6122964;23;20032;-83
2023/03/08 08:11:14;;;;;;;13.63;8.50;;;;;;;;;;6102274;23;20026;-82
2023/03/08 08:13:41;;;;;;;15.52;8.40;;;;;;;;;;6128436;23;20360;-83
2023/03/08 08:16:08;;;;;;;13.25;8.00;;;;;;;;;;6124898;23;20030;-84
2023/03/08 08:18:35;;;;;;;16.05;8.43;;;;;;;;;;6125878;23;20026;-83
2023/03/08 08:21:05;;;;;;;13.00;7.35;;;;;;;;;;6124290;23;20101;-82
2023/03/08 08:23:32;;;;;;;12.98;7.72;;;;;;;;;;6101342;23;20333;-83
2023/03/08 08:25:59;;;;;;;15.02;8.00;;;;;;;;;;6124444;23;20032;-83
2023/03/08 08:28:26;;;;;;;13.88;8.90;;;;;;;;;;6132748;23;20026;-83
2023/03/08 08:31:03;;;;;;;15.07;8.50;;;;;;;;;;6139797;23;20036;-84
2023/03/08 08:33:30;;;;;;;14.55;9.23;;;;;;;;;;6132531;23;20432;-83
2023/03/08 08:35:58;;;;;;;16.48;8.85;;;;;;;;;;6130940;23;20091;-83
2023/03/08 08:38:25;;;;;;;17.52;8.32;;;;;;;;;;6129163;23;20029;-77
2023/03/08 08:40:52;;;;;;;11.55;7.97;;;;;;;;;;6122550;23;20482;-77
2023/03/08 08:43:18;;;;;;;13.10;8.02;;;;;;;;;;6098979;23;20057;-78
2023/03/08 08:45:52;;;;;;;17.13;8.52;;;;;;;;;;6096050;23;20028;-78
2023/03/08 08:48:18;;;;;;;16.83;9.95;;;;;;;;;;6126412;23;20038;-81
2023/03/08 08:50:45;;;;;;;13.88;9.07;;;;;;;;;;6154917;23;20025;-80
2023/03/08 08:53:12;;;;;;;16.65;9.00;;;;;;;;;;6106406;23;20030;-83
2023/03/08 08:55:39;;;;;;;15.07;9.70;;;;;;;;;;6144900;23;20036;-80
2023/03/08 08:58:08;;;;;;;13.00;8.48;;;;;;;;;;6148964;23;20452;-82
2023/03/08 09:00:35;;;;;;;16.02;8.57;;;;;;;;;;6124166;23;20043;-81
2023/03/08 09:03:03;;;;;;;17.60;9.43;;;;;;;;;;6148383;23;20454;-80
2023/03/08 09:05:30;;;;;;;13.77;8.80;;;;;;;;;;6124313;23;20061;-81
2023/03/08 09:07:59;;;;;;;16.90;10.13;;;;;;;;;;6148408;23;20423;-80
2023/03/08 09:10:27;;;;;;;18.33;9.63;;;;;;;;;;6101929;23;20030;-79
2023/03/08 09:12:54;;;;;;;14.73;8.52;;;;;;;;;;6098235;23;20066;-79
2023/03/08 09:15:24;;;;;;;15.32;9.27;;;;;;;;;;6123255;23;20030;-79
2023/03/08 09:17:50;;;;;;;14.52;9.25;;;;;;;;;;6121219;23;20419;-79
2023/03/08 09:20:18;;;;;;;13.77;9.82;;;;;;;;;;6121709;23;20030;-79
2023/03/08 09:22:47;;;;;;;13.77;9.65;;;;;;;;;;6121572;23;20065;-80
2023/03/08 09:25:14;;;;;;;16.27;10.68;;;;;;;;;;6120380;23;20022;-79
2023/03/08 09:27:41;;;;;;;16.73;10.90;;;;;;;;;;6096462;23;20045;-77
2023/03/08 09:30:09;;;;;;;20.02;11.75;;;;;;;;;;6094969;23;20045;-77
2023/03/08 09:32:36;;;;;;;17.33;10.43;;;;;;;;;;6142942;23;20037;-76
2023/03/08 09:35:04;;;;;;;15.10;9.88;;;;;;;;;;6112238;23;20085;-76
2023/03/08 09:37:30;;;;;;;16.98;10.63;;;;;;;;;;6120136;23;20022;-77
2023/03/08 09:39:57;;;;;;;17.05;11.02;;;;;;;;;;6123863;23;20034;-77
2023/03/08 09:42:32;;;;;;;15.90;10.13;;;;;;;;;;6120154;23;20484;-77
2023/03/08 09:45:05;;;;;;;24.80;11.02;;;;;;;;;;6096931;23;20037;-77
2023/03/08 09:47:50;;;;;;;17.65;10.38;;;;;;;;;;6119572;23;20364;-78
2023/03/08 09:50:34;;;;;;;18.30;11.75;;;;;;;;;;6117557;23;20041;-76
2023/03/08 09:53:10;;;;;;;19.25;12.20;;;;;;;;;;6119078;23;20531;-77
2023/03/08 09:55:41;;;;;;;17.38;11.63;;;;;;;;;;6121489;23;20022;-78
2023/03/08 09:58:21;;;;;;;16.48;11.10;;;;;;;;;;6122470;23;20029;-78
2023/03/08 10:00:58;;;;;;;17.38;11.13;;;;;;;;;;6146371;23;20041;-77
2023/03/08 10:03:53;;;;;;;17.38;11.30;;;;;;;;;;6101619;23;20029;-78
2023/03/08 10:06:35;;;;;;;15.20;9.63;;;;;;;;;;6127415;23;20022;-80
2023/03/08 10:09:36;;;;;;;15.85;10.23;;;;;;;;;;6128871;23;20033;-79
2023/03/08 10:12:40;;;;;;;18.85;11.00;;;;;;;;;;6129273;23;20026;-80
2023/03/08 10:15:14;;;;;;;14.20;9.48;;;;;;;;;;6126268;23;20368;-81
2023/03/08 10:17:51;;;;;;;17.63;10.18;;;;;;;;;;6125515;23;20026;-81
2023/03/08 10:20:26;;;;;;;16.98;10.90;;;;;;;;;;6126298;23;20033;-80
2023/03/08 10:23:28;;;;;;;13.25;8.98;;;;;;;;;;6127908;23;20022;-81
2023/03/08 10:25:54;;;;;;;13.88;8.07;;;;;;;;;;6087349;23;20041;-80
2023/03/08 10:28:23;;;;;;;9.40;7.20;;;;;;;;;;6127241;23;20064;-80
2023/03/08 10:30:53;;;;;;;12.25;7.28;;;;;;;;;;6152056;23;20547;-81
2023/03/08 10:33:23;;;;;;;10.57;7.60;;;;;;;;;;6103426;23;20033;-81
2023/03/08 10:36:05;;;;;;;13.05;7.03;;;;;;;;;;6135155;23;20026;-79
2023/03/08 10:38:35;;;;;;;11.25;7.13;;;;;;;;;;6131741;23;20030;-78
2023/03/08 10:41:15;;;;;;;11.65;7.10;;;;;;;;;;6130636;23;20112;-81
2023/03/08 10:43:50;;;;;;;10.55;6.32;;;;;;;;;;6106599;23;20436;-81
2023/03/08 10:46:20;;;;;;;10.57;7.10;;;;;;;;;;6129428;23;20026;-81
2023/03/08 10:48:47;;;;;;;12.43;6.75;;;;;;;;;;6128072;23;20022;-81
2023/03/08 10:51:23;;;;;;;13.13;7.35;;;;;;;;;;6129082;23;20041;-81
2023/03/08 10:54:02;;;;;;;11.10;6.78;;;;;;;;;;6104545;23;20026;-80
2023/03/08 10:56:50;;;;;;;10.75;5.70;;;;;;;;;;6128239;23;20032;-81
2023/03/08 10:59:20;;;;;;;7.45;4.45;;;;;;;;;;6126940;23;20030;-79
2023/03/08 11:01:49;;;;;;;8.50;4.57;;;;;;;;;;6124183;23;20034;-73
2023/03/08 11:04:21;;;;;;;5.68;4.05;;;;;;;;;;6123779;23;20030;-80
2023/03/08 11:06:48;;;;;;;5.35;4.10;;;;;;;;;;6125074;23;20236;-80
2023/03/08 11:09:28;;;;;;;4.65;3.65;;;;;;;;;;6105211;23;20022;-81
2023/03/08 11:11:59;;;;;;;4.38;3.05;;;;;;;;;;6130888;23;20030;-77
2023/03/08 11:14:27;;;;;;;4.15;3.20;;;;;;;;;;6132822;23;20034;-80
2023/03/08 11:17:06;;;;;;;3.38;2.92;;;;;;;;;;6160857;23;20030;-80
2023/03/08 11:20:15;;;;;;;4.32;2.95;;;;;;;;;;6145883;23;20037;-78
2023/03/08 11:22:41;;;;;;;3.38;2.30;;;;;;;;;;6138907;23;20026;-80
2023/03/08 11:25:08;;;;;;;4.07;1.63;;;;;;;;;;6138874;23;20033;-80
2023/03/08 11:28:00;;;;;;;6.78;3.50;;;;;;;;;;6134675;23;20053;-79
2023/03/08 11:30:36;;;;;;;4.32;1.85;;;;;;;;;;6136465;23;20085;-80
2023/03/08 11:33:24;;;;;;;2.42;1.90;;;;;;;;;;6135528;23;20030;-80
2023/03/08 11:36:12;;;;;;;1.80;1.48;;;;;;;;;;6134367;23;20046;-79
2023/03/08 11:38:39;;;;;;;2.22;1.17;;;;;;;;;;6131596;23;20026;-79
2023/03/08 11:41:06;;;;;;;1.38;1.02;;;;;;;;;;6135876;23;20026;-78
2023/03/08 11:43:43;;;;;;;2.22;1.50;;;;;;;;;;6131570;23;20034;-80
2023/03/08 11:46:43;;;;;;;3.30;1.42;;;;;;;;;;6130748;23;20028;-79
2023/03/08 11:49:23;;;;;;;1.55;1.00;;;;;;;;;;6131570;23;20032;-79
2023/03/08 11:51:58;;;;;;;3.65;1.52;;;;;;;;;;6130921;23;20036;-79
2023/03/08 11:54:43;;;;;;;2.28;1.50;;;;;;;;;;6107948;23;20026;-79
2023/03/08 11:57:12;;;;;;;2.35;1.02;;;;;;;;;;6131707;23;20029;-79
2023/03/08 11:59:49;;;;;;;3.42;1.10;;;;;;;;;;6131310;23;20082;-79
2023/03/08 12:02:21;;;;;;;1.88;0.90;;;;;;;;;;6106834;23;20062;-80
2023/03/08 12:05:10;;;;;;;2.10;1.50;;;;;;;;;;6130712;23;20115;-79
2023/03/08 12:07:46;;;;;;;1.65;0.82;;;;;;;;;;6130185;23;20053;-80
2023/03/08 12:10:36;;;;;;;3.35;1.20;;;;;;;;;;6107183;23;20021;-79
2023/03/08 12:13:10;;;;;;;3.22;1.25;;;;;;;;;;6130964;23;20037;-79
2023/03/08 12:15:59;;;;;;;4.53;1.00;;;;;;;;;;6131480;23;20543;-80
2023/03/08 12:18:49;;;;;;;1.23;0.80;;;;;;;;;;6111080;23;20044;-79
2023/03/08 12:21:15;;;;;;;1.40;1.00;;;;;;;;;;6128948;23;20037;-79
2023/03/08 12:24:20;;;;;;;0.95;0.90;;;;;;;;;;6131590;23;20431;-79
2023/03/08 12:26:50;;;;;;;12.43;5.05;;;;;;;;;;6132062;23;20049;-79
2023/03/08 12:29:40;;;;;;;6.63;2.75;;;;;;;;;;6130612;23;20034;-79
2023/03/08 12:32:07;;;;;;;2.15;1.42;;;;;;;;;;6130842;23;20029;-79
2023/03/08 12:34:34;;;;;;;2.20;0.90;;;;;;;;;;6131580;23;20022;-79
2023/03/08 12:37:01;;;;;;;1.05;0.80;;;;;;;;;;6130976;23;20034;-79
2023/03/08 12:39:34;;;;;;;1.75;0.98;;;;;;;;;;6131863;23;20026;-79
2023/03/08 12:42:10;;;;;;;1.67;0.80;;;;;;;;;;6130006;23;20030;-80
2023/03/08 12:44:37;;;;;;;1.08;0.80;;;;;;;;;;6131259;23;20026;-80
2023/03/08 12:47:10;;;;;;;1.45;1.08;;;;;;;;;;6130894;23;20105;-80
2023/03/08 12:49:39;;;;;;;2.58;1.05;;;;;;;;;;6129576;23;20047;-79
2023/03/08 12:52:19;;;;;;;0.70;0.70;;;;;;;;;;6129797;23;20033;-80
2023/03/08 12:54:56;;;;;;;1.33;0.57;;;;;;;;;;6129333;23;20050;-79
2023/03/08 12:57:26;;;;;;;1.10;0.80;;;;;;;;;;6152362;23;20026;-79
2023/03/08 13:00:05;;;;;;;11.98;1.13;;;;;;;;;;6127455;23;20030;-81
2023/03/08 13:02:33;;;;;;;2.70;1.25;;;;;;;;;;6124626;23;20032;-79
2023/03/08 13:05:29;;;;;;;0.93;0.60;;;;;;;;;;6105083;23;20026;-79
2023/03/08 13:08:03;;;;;;;1.05;0.70;;;;;;;;;;6127901;23;20022;-79
2023/03/08 13:10:56;;;;;;;0.70;0.70;;;;;;;;;;6127495;23;20057;-79
2023/03/08 13:13:42;;;;;;;;;;;;;;;;;;6128536;23;20036;-80
2023/03/08 13:16:31;;;;;;;1.00;0.70;;;;;;;;;;6128577;23;19943;-80
2023/03/08 13:19:35;;;;;;;0.88;0.68;;;;;;;;;;6128618;23;20032;-79
2023/03/08 13:22:16;;;;;;;1.73;0.57;;;;;;;;;;6107230;23;20025;-79
2023/03/08 13:24:55;;;;;;;1.42;0.73;;;;;;;;;;6128547;23;20049;-79
2023/03/08 13:27:48;;;;;;;0.88;0.60;;;;;;;;;;6127075;23;20029;-80
2023/03/08 13:30:45;;;;;;;0.75;0.60;;;;;;;;;;6117099;23;20061;-80
2023/03/08 13:33:26;;;;;;;0.82;0.75;;;;;;;;;;6127756;23;20397;-81
2023/03/08 13:36:14;;;;;;;1.33;0.77;;;;;;;;;;6125508;23;20080;-81
2023/03/08 13:38:40;;;;;;;0.90;0.82;;;;;;;;;;6146627;23;20026;-78
2023/03/08 13:41:07;;;;;;;1.70;0.77;;;;;;;;;;6122342;23;20034;-78
2023/03/08 13:43:34;;;;;;;1.70;0.60;;;;;;;;;;6124408;23;20080;-78
2023/03/08 13:46:05;;;;;;;0.80;0.70;;;;;;;;;;6120827;23;20025;-78
2023/03/08 13:48:34;;;;;;;1.70;0.60;;;;;;;;;;6097166;23;20065;-76
2023/03/08 13:51:01;;;;;;;2.22;0.63;;;;;;;;;;6122033;23;20415;-82
2023/03/08 13:53:30;;;;;;;2.53;0.55;;;;;;;;;;6122845;23;20109;-87
2023/03/08 13:55:59;;;;;;;1.73;1.25;;;;;;;;;;6127283;23;20069;-80
2023/03/08 13:58:29;;;;;;;1.10;0.85;;;;;;;;;;6127686;23;20337;-79
2023/03/08 14:01:10;;;;;;;2.33;0.90;;;;;;;;;;6129705;23;20088;-81
2023/03/08 14:03:37;;;;;;;13.18;1.20;;;;;;;;;;6125853;23;20416;-80
2023/03/08 14:06:29;;;;;;;1.73;1.33;;;;;;;;;;6126739;23;20045;-80
2023/03/08 14:08:59;;;;;;;2.50;0.80;;;;;;;;;;6124640;23;20030;-80
2023/03/08 14:11:30;;;;;;;0.50;0.50;;;;;;;;;;6125027;23;20036;-81
2023/03/08 14:13:57;;;;;;;1.23;0.65;;;;;;;;;;6124594;23;20045;-81
2023/03/08 14:16:30;;;;;;;1.45;0.60;;;;;;;;;;6124396;23;20028;-81
2023/03/08 14:18:58;;;;;;;;;;;;;;;;;;6125630;23;20084;-81
2023/03/08 14:21:27;;;;;;;1.45;0.40;;;;;;;;;;6100075;23;19921;-81
2023/03/08 14:24:17;;;;;;;0.60;0.40;;;;;;;;;;6124250;23;20354;-79
2023/03/08 14:27:03;;;;;;;4.72;1.23;;;;;;;;;;6125056;23;20482;-80
2023/03/08 14:29:31;;;;;;;2.65;1.20;;;;;;;;;;6123884;23;20041;-81
2023/03/08 14:32:09;;;;;;;2.35;1.10;;;;;;;;;;6122809;23;20032;-81
2023/03/08 14:34:44;;;;;;;3.78;1.52;;;;;;;;;;6124354;23;20110;-81
2023/03/08 14:37:10;;;;;;;2.65;0.80;;;;;;;;;;6099140;23;20022;-81
2023/03/08 14:39:40;;;;;;;0.82;0.50;;;;;;;;;;6122435;23;20069;-80
2023/03/08 14:42:21;;;;;;;2.38;0.80;;;;;;;;;;6122490;23;20034;-81
2023/03/08 14:44:53;;;;;;;0.68;0.50;;;;;;;;;;6123531;23;20034;-81
2023/03/08 14:47:25;;;;;;;3.53;2.03;;;;;;;;;;6098690;23;20036;-80
2023/03/08 14:49:59;;;;;;;;;;;;;;;;;;6103319;23;20709;-80
2023/03/08 14:52:30;;;;;;;2.05;1.40;;;;;;;;;;6105043;23;20358;-79
2023/03/08 14:54:56;;;;;;;4.15;1.50;;;;;;;;;;6105867;23;20101;-80